sensor_id;sensor_type;location;lat;lon;timestamp;P1;durP1;ratioP1;P2;durP2;ratioP2
68273;SDS011;55104;47.356;19.448;2024-02-14T00:02:43;19.13;;;6.85;;
68273;SDS011;55104;47.356;19.448;2024-02-14T00:05:46;19.25;;;7.47;;
68273;SDS011;55104;47.356;19.448;2024-02-14T00:08:48;21.17;;;5.83;;
68273;SDS011;55104;47.356;19.448;2024-02-14T00:11:51;17.23;;;7.38;;
68273;SDS011;55104;47.356;19.448;2024-02-14T00:14:53;12.75;;;6.15;;
68273;SDS011;55104;47.356;19.448;2024-02-14T00:17:56;13.48;;;5.35;;
68273;SDS011;55104;47.356;19.448;2024-02-14T00:20:58;16.35;;;5.18;;
68273;SDS011;55104;47.356;19.448;2024-02-14T00:24:00;13.50;;;4.97;;
68273;SDS011;55104;47.356;19.448;2024-02-14T00:27:03;12.80;;;4.80;;
68273;SDS011;55104;47.356;19.448;2024-02-14T00:30:06;9.57;;;4.90;;
68273;SDS011;55104;47.356;19.448;2024-02-14T00:33:09;12.95;;;4.88;;
68273;SDS011;55104;47.356;19.448;2024-02-14T00:36:11;10.23;;;3.78;;
68273;SDS011;55104;47.356;19.448;2024-02-14T00:39:14;6.07;;;2.47;;
68273;SDS011;55104;47.356;19.448;2024-02-14T00:42:16;8.27;;;3.22;;
68273;SDS011;55104;47.356;19.448;2024-02-14T00:45:18;8.77;;;3.40;;
68273;SDS011;55104;47.356;19.448;2024-02-14T00:48:20;10.65;;;2.63;;
68273;SDS011;55104;47.356;19.448;2024-02-14T00:51:23;7.75;;;3.67;;
68273;SDS011;55104;47.356;19.448;2024-02-14T00:54:25;6.15;;;2.88;;
68273;SDS011;55104;47.356;19.448;2024-02-14T00:57:27;4.88;;;2.53;;
68273;SDS011;55104;47.356;19.448;2024-02-14T01:00:30;9.70;;;3.10;;
68273;SDS011;55104;47.356;19.448;2024-02-14T01:03:37;8.70;;;2.80;;
68273;SDS011;55104;47.356;19.448;2024-02-14T01:06:39;5.80;;;2.25;;
68273;SDS011;55104;47.356;19.448;2024-02-14T01:09:41;6.60;;;2.90;;
68273;SDS011;55104;47.356;19.448;2024-02-14T01:12:44;7.00;;;2.95;;
68273;SDS011;55104;47.356;19.448;2024-02-14T01:15:46;5.18;;;3.08;;
68273;SDS011;55104;47.356;19.448;2024-02-14T01:18:48;3.03;;;1.15;;
68273;SDS011;55104;47.356;19.448;2024-02-14T01:21:51;7.05;;;2.50;;
68273;SDS011;55104;47.356;19.448;2024-02-14T01:24:54;5.90;;;1.75;;
68273;SDS011;55104;47.356;19.448;2024-02-14T01:27:56;6.70;;;2.42;;
68273;SDS011;55104;47.356;19.448;2024-02-14T01:30:58;7.27;;;3.10;;
68273;SDS011;55104;47.356;19.448;2024-02-14T01:34:00;8.63;;;3.03;;
68273;SDS011;55104;47.356;19.448;2024-02-14T01:37:06;7.18;;;2.13;;
68273;SDS011;55104;47.356;19.448;2024-02-14T01:40:08;7.17;;;2.83;;
68273;SDS011;55104;47.356;19.448;2024-02-14T01:43:11;6.65;;;2.55;;
68273;SDS011;55104;47.356;19.448;2024-02-14T01:46:13;5.57;;;2.17;;
68273;SDS011;55104;47.356;19.448;2024-02-14T01:49:15;6.90;;;2.08;;
68273;SDS011;55104;47.356;19.448;2024-02-14T01:52:18;7.88;;;3.22;;
68273;SDS011;55104;47.356;19.448;2024-02-14T01:55:21;2.78;;;1.13;;
68273;SDS011;55104;47.356;19.448;2024-02-14T01:58:24;5.75;;;2.17;;
68273;SDS011;55104;47.356;19.448;2024-02-14T02:01:26;11.97;;;2.20;;
68273;SDS011;55104;47.356;19.448;2024-02-14T02:04:29;4.50;;;1.88;;
68273;SDS011;55104;47.356;19.448;2024-02-14T02:07:31;9.88;;;3.95;;
68273;SDS011;55104;47.356;19.448;2024-02-14T02:10:34;6.00;;;1.93;;
68273;SDS011;55104;47.356;19.448;2024-02-14T02:13:36;7.18;;;2.92;;
68273;SDS011;55104;47.356;19.448;2024-02-14T02:16:41;7.53;;;3.05;;
68273;SDS011;55104;47.356;19.448;2024-02-14T02:19:43;5.30;;;1.90;;
68273;SDS011;55104;47.356;19.448;2024-02-14T02:22:46;5.45;;;2.15;;
68273;SDS011;55104;47.356;19.448;2024-02-14T02:25:52;6.93;;;3.22;;
68273;SDS011;55104;47.356;19.448;2024-02-14T02:28:54;6.32;;;1.88;;
68273;SDS011;55104;47.356;19.448;2024-02-14T02:31:56;7.80;;;2.03;;
68273;SDS011;55104;47.356;19.448;2024-02-14T02:34:59;4.90;;;2.50;;
68273;SDS011;55104;47.356;19.448;2024-02-14T02:38:01;7.55;;;3.50;;
68273;SDS011;55104;47.356;19.448;2024-02-14T02:41:04;20.00;;;5.80;;
68273;SDS011;55104;47.356;19.448;2024-02-14T02:44:09;12.63;;;5.47;;
68273;SDS011;55104;47.356;19.448;2024-02-14T02:47:12;17.77;;;6.97;;
68273;SDS011;55104;47.356;19.448;2024-02-14T02:50:15;12.82;;;6.70;;
68273;SDS011;55104;47.356;19.448;2024-02-14T02:53:17;12.77;;;6.72;;
68273;SDS011;55104;47.356;19.448;2024-02-14T02:56:20;17.58;;;6.20;;
68273;SDS011;55104;47.356;19.448;2024-02-14T02:59:23;12.27;;;6.03;;
68273;SDS011;55104;47.356;19.448;2024-02-14T03:02:26;17.33;;;6.60;;
68273;SDS011;55104;47.356;19.448;2024-02-14T03:05:29;12.13;;;6.03;;
68273;SDS011;55104;47.356;19.448;2024-02-14T03:08:35;8.90;;;3.55;;
68273;SDS011;55104;47.356;19.448;2024-02-14T03:11:37;8.03;;;4.13;;
68273;SDS011;55104;47.356;19.448;2024-02-14T03:14:40;12.32;;;5.25;;
68273;SDS011;55104;47.356;19.448;2024-02-14T03:17:44;7.88;;;3.83;;
68273;SDS011;55104;47.356;19.448;2024-02-14T03:20:47;7.75;;;3.08;;
68273;SDS011;55104;47.356;19.448;2024-02-14T03:23:49;4.15;;;1.60;;
68273;SDS011;55104;47.356;19.448;2024-02-14T03:26:52;3.92;;;1.88;;
68273;SDS011;55104;47.356;19.448;2024-02-14T03:29:58;4.20;;;1.70;;
68273;SDS011;55104;47.356;19.448;2024-02-14T03:33:02;6.00;;;1.80;;
68273;SDS011;55104;47.356;19.448;2024-02-14T03:36:05;4.68;;;1.35;;
68273;SDS011;55104;47.356;19.448;2024-02-14T03:39:08;3.55;;;1.52;;
68273;SDS011;55104;47.356;19.448;2024-02-14T03:42:10;3.13;;;0.90;;
68273;SDS011;55104;47.356;19.448;2024-02-14T03:45:12;6.93;;;1.85;;
68273;SDS011;55104;47.356;19.448;2024-02-14T03:48:15;8.65;;;1.00;;
68273;SDS011;55104;47.356;19.448;2024-02-14T03:51:19;2.53;;;0.90;;
68273;SDS011;55104;47.356;19.448;2024-02-14T03:54:21;2.05;;;0.75;;
68273;SDS011;55104;47.356;19.448;2024-02-14T03:57:25;1.88;;;0.82;;
68273;SDS011;55104;47.356;19.448;2024-02-14T04:00:30;2.90;;;1.60;;
68273;SDS011;55104;47.356;19.448;2024-02-14T04:03:35;1.87;;;0.67;;
68273;SDS011;55104;47.356;19.448;2024-02-14T04:06:37;1.98;;;0.63;;
68273;SDS011;55104;47.356;19.448;2024-02-14T04:09:39;3.67;;;1.48;;
68273;SDS011;55104;47.356;19.448;2024-02-14T04:12:41;3.40;;;1.00;;
68273;SDS011;55104;47.356;19.448;2024-02-14T04:15:44;12.90;;;1.90;;
68273;SDS011;55104;47.356;19.448;2024-02-14T04:18:46;3.00;;;1.15;;
68273;SDS011;55104;47.356;19.448;2024-02-14T04:21:48;2.67;;;1.10;;
68273;SDS011;55104;47.356;19.448;2024-02-14T04:24:51;1.58;;;0.52;;
68273;SDS011;55104;47.356;19.448;2024-02-14T04:27:53;3.55;;;1.17;;
68273;SDS011;55104;47.356;19.448;2024-02-14T04:30:55;3.67;;;1.63;;
68273;SDS011;55104;47.356;19.448;2024-02-14T04:33:58;2.40;;;0.80;;
68273;SDS011;55104;47.356;19.448;2024-02-14T04:37:00;3.47;;;1.38;;
68273;SDS011;55104;47.356;19.448;2024-02-14T04:40:04;1.80;;;0.70;;
68273;SDS011;55104;47.356;19.448;2024-02-14T04:43:07;4.43;;;0.83;;
68273;SDS011;55104;47.356;19.448;2024-02-14T04:46:09;2.25;;;1.17;;
68273;SDS011;55104;47.356;19.448;2024-02-14T04:49:11;2.60;;;0.73;;
68273;SDS011;55104;47.356;19.448;2024-02-14T04:52:16;7.18;;;1.15;;
68273;SDS011;55104;47.356;19.448;2024-02-14T04:55:18;1.45;;;0.75;;
68273;SDS011;55104;47.356;19.448;2024-02-14T04:58:20;2.72;;;1.08;;
68273;SDS011;55104;47.356;19.448;2024-02-14T05:01:23;3.00;;;1.05;;
68273;SDS011;55104;47.356;19.448;2024-02-14T05:04:25;3.07;;;0.90;;
68273;SDS011;55104;47.356;19.448;2024-02-14T05:07:27;4.18;;;1.30;;
68273;SDS011;55104;47.356;19.448;2024-02-14T05:10:30;3.33;;;0.82;;
68273;SDS011;55104;47.356;19.448;2024-02-14T05:13:32;2.87;;;0.73;;
68273;SDS011;55104;47.356;19.448;2024-02-14T05:16:34;0.93;;;0.28;;
68273;SDS011;55104;47.356;19.448;2024-02-14T05:19:37;2.47;;;0.40;;
68273;SDS011;55104;47.356;19.448;2024-02-14T05:22:39;2.20;;;0.88;;
68273;SDS011;55104;47.356;19.448;2024-02-14T05:25:41;2.08;;;0.80;;
68273;SDS011;55104;47.356;19.448;2024-02-14T05:28:43;2.47;;;1.10;;
68273;SDS011;55104;47.356;19.448;2024-02-14T05:31:46;2.42;;;1.23;;
68273;SDS011;55104;47.356;19.448;2024-02-14T05:34:50;2.73;;;1.13;;
68273;SDS011;55104;47.356;19.448;2024-02-14T05:37:53;10.75;;;1.83;;
68273;SDS011;55104;47.356;19.448;2024-02-14T05:40:56;3.50;;;1.70;;
68273;SDS011;55104;47.356;19.448;2024-02-14T05:43:58;8.93;;;3.00;;
68273;SDS011;55104;47.356;19.448;2024-02-14T05:47:01;4.85;;;1.23;;
68273;SDS011;55104;47.356;19.448;2024-02-14T05:50:03;11.45;;;3.97;;
68273;SDS011;55104;47.356;19.448;2024-02-14T05:53:06;8.07;;;2.90;;
68273;SDS011;55104;47.356;19.448;2024-02-14T05:56:08;12.32;;;6.75;;
68273;SDS011;55104;47.356;19.448;2024-02-14T05:59:10;22.40;;;7.15;;
68273;SDS011;55104;47.356;19.448;2024-02-14T06:02:12;15.10;;;6.13;;
68273;SDS011;55104;47.356;19.448;2024-02-14T06:05:15;9.10;;;4.23;;
68273;SDS011;55104;47.356;19.448;2024-02-14T06:08:18;18.02;;;8.68;;
68273;SDS011;55104;47.356;19.448;2024-02-14T06:11:21;11.20;;;5.47;;
68273;SDS011;55104;47.356;19.448;2024-02-14T06:14:23;13.93;;;5.10;;
68273;SDS011;55104;47.356;19.448;2024-02-14T06:17:25;11.23;;;3.65;;
68273;SDS011;55104;47.356;19.448;2024-02-14T06:20:30;11.13;;;3.92;;
68273;SDS011;55104;47.356;19.448;2024-02-14T06:23:32;12.70;;;3.97;;
68273;SDS011;55104;47.356;19.448;2024-02-14T06:26:35;8.35;;;2.53;;
68273;SDS011;55104;47.356;19.448;2024-02-14T06:29:37;14.00;;;4.22;;
68273;SDS011;55104;47.356;19.448;2024-02-14T06:32:40;14.05;;;4.93;;
68273;SDS011;55104;47.356;19.448;2024-02-14T06:35:42;8.17;;;3.20;;
68273;SDS011;55104;47.356;19.448;2024-02-14T06:38:46;9.20;;;3.30;;
68273;SDS011;55104;47.356;19.448;2024-02-14T06:41:48;13.43;;;5.15;;
68273;SDS011;55104;47.356;19.448;2024-02-14T06:44:51;8.47;;;4.10;;
68273;SDS011;55104;47.356;19.448;2024-02-14T06:47:53;10.48;;;3.30;;
68273;SDS011;55104;47.356;19.448;2024-02-14T06:50:56;11.55;;;2.95;;
68273;SDS011;55104;47.356;19.448;2024-02-14T06:53:59;14.30;;;4.32;;
68273;SDS011;55104;47.356;19.448;2024-02-14T06:57:01;15.43;;;4.00;;
68273;SDS011;55104;47.356;19.448;2024-02-14T07:00:03;13.95;;;5.88;;
68273;SDS011;55104;47.356;19.448;2024-02-14T07:03:11;21.42;;;6.28;;
68273;SDS011;55104;47.356;19.448;2024-02-14T07:06:14;13.57;;;5.00;;
68273;SDS011;55104;47.356;19.448;2024-02-14T07:09:17;12.57;;;6.15;;
68273;SDS011;55104;47.356;19.448;2024-02-14T07:12:19;11.10;;;4.85;;
68273;SDS011;55104;47.356;19.448;2024-02-14T07:15:22;11.10;;;4.63;;
68273;SDS011;55104;47.356;19.448;2024-02-14T07:18:27;8.98;;;5.25;;
68273;SDS011;55104;47.356;19.448;2024-02-14T07:21:30;16.45;;;6.13;;
68273;SDS011;55104;47.356;19.448;2024-02-14T07:24:32;14.13;;;6.00;;
68273;SDS011;55104;47.356;19.448;2024-02-14T07:27:34;9.50;;;5.82;;
68273;SDS011;55104;47.356;19.448;2024-02-14T07:30:36;11.98;;;4.65;;
68273;SDS011;55104;47.356;19.448;2024-02-14T07:33:39;7.38;;;3.35;;
68273;SDS011;55104;47.356;19.448;2024-02-14T07:36:42;7.43;;;2.97;;
68273;SDS011;55104;47.356;19.448;2024-02-14T07:39:48;8.52;;;3.03;;
68273;SDS011;55104;47.356;19.448;2024-02-14T07:42:50;9.23;;;3.42;;
68273;SDS011;55104;47.356;19.448;2024-02-14T07:45:52;5.80;;;2.20;;
68273;SDS011;55104;47.356;19.448;2024-02-14T07:48:54;8.00;;;3.78;;
68273;SDS011;55104;47.356;19.448;2024-02-14T07:51:57;9.43;;;2.75;;
68273;SDS011;55104;47.356;19.448;2024-02-14T07:54:59;10.48;;;2.72;;
68273;SDS011;55104;47.356;19.448;2024-02-14T07:58:01;9.43;;;3.08;;
68273;SDS011;55104;47.356;19.448;2024-02-14T08:01:04;6.85;;;3.38;;
68273;SDS011;55104;47.356;19.448;2024-02-14T08:04:06;13.77;;;2.83;;
68273;SDS011;55104;47.356;19.448;2024-02-14T08:07:09;6.63;;;3.10;;
68273;SDS011;55104;47.356;19.448;2024-02-14T08:10:11;8.45;;;3.10;;
68273;SDS011;55104;47.356;19.448;2024-02-14T08:13:14;8.20;;;3.97;;
68273;SDS011;55104;47.356;19.448;2024-02-14T08:16:18;11.20;;;3.50;;
68273;SDS011;55104;47.356;19.448;2024-02-14T08:19:20;12.65;;;4.53;;
68273;SDS011;55104;47.356;19.448;2024-02-14T08:22:22;12.50;;;3.40;;
68273;SDS011;55104;47.356;19.448;2024-02-14T08:25:25;5.55;;;2.47;;
68273;SDS011;55104;47.356;19.448;2024-02-14T08:28:28;15.48;;;2.35;;
68273;SDS011;55104;47.356;19.448;2024-02-14T08:31:30;6.68;;;2.75;;
68273;SDS011;55104;47.356;19.448;2024-02-14T08:34:34;10.15;;;2.58;;
68273;SDS011;55104;47.356;19.448;2024-02-14T08:37:37;22.47;;;4.03;;
68273;SDS011;55104;47.356;19.448;2024-02-14T08:40:40;13.63;;;3.30;;
68273;SDS011;55104;47.356;19.448;2024-02-14T08:43:42;11.48;;;3.80;;
68273;SDS011;55104;47.356;19.448;2024-02-14T08:46:48;5.90;;;2.37;;
68273;SDS011;55104;47.356;19.448;2024-02-14T08:49:51;6.80;;;3.03;;
68273;SDS011;55104;47.356;19.448;2024-02-14T08:52:53;15.55;;;2.22;;
68273;SDS011;55104;47.356;19.448;2024-02-14T08:55:55;5.50;;;2.05;;
68273;SDS011;55104;47.356;19.448;2024-02-14T08:59:00;17.73;;;2.00;;
68273;SDS011;55104;47.356;19.448;2024-02-14T09:02:04;4.43;;;1.73;;
68273;SDS011;55104;47.356;19.448;2024-02-14T09:05:07;6.50;;;1.98;;
68273;SDS011;55104;47.356;19.448;2024-02-14T09:08:11;3.00;;;1.03;;
68273;SDS011;55104;47.356;19.448;2024-02-14T09:11:13;3.72;;;1.33;;
68273;SDS011;55104;47.356;19.448;2024-02-14T09:14:16;13.77;;;2.58;;
68273;SDS011;55104;47.356;19.448;2024-02-14T09:17:18;13.77;;;2.33;;
68273;SDS011;55104;47.356;19.448;2024-02-14T09:20:20;9.43;;;2.38;;
68273;SDS011;55104;47.356;19.448;2024-02-14T09:23:23;4.30;;;1.50;;
68273;SDS011;55104;47.356;19.448;2024-02-14T09:26:25;21.60;;;11.52;;
68273;SDS011;55104;47.356;19.448;2024-02-14T09:29:28;9.10;;;4.07;;
68273;SDS011;55104;47.356;19.448;2024-02-14T09:32:31;3.28;;;1.00;;
68273;SDS011;55104;47.356;19.448;2024-02-14T09:35:33;5.03;;;1.70;;
68273;SDS011;55104;47.356;19.448;2024-02-14T09:38:37;4.17;;;1.50;;
68273;SDS011;55104;47.356;19.448;2024-02-14T09:41:42;6.00;;;1.95;;
68273;SDS011;55104;47.356;19.448;2024-02-14T09:44:49;7.13;;;1.60;;
68273;SDS011;55104;47.356;19.448;2024-02-14T09:47:54;4.27;;;1.20;;
68273;SDS011;55104;47.356;19.448;2024-02-14T09:50:58;5.45;;;1.52;;
68273;SDS011;55104;47.356;19.448;2024-02-14T09:54:02;3.70;;;1.38;;
68273;SDS011;55104;47.356;19.448;2024-02-14T09:57:05;9.50;;;2.10;;
68273;SDS011;55104;47.356;19.448;2024-02-14T10:00:11;6.80;;;1.98;;
68273;SDS011;55104;47.356;19.448;2024-02-14T10:03:16;5.13;;;2.05;;
68273;SDS011;55104;47.356;19.448;2024-02-14T10:06:18;9.20;;;2.60;;
68273;SDS011;55104;47.356;19.448;2024-02-14T10:09:22;10.07;;;2.57;;
68273;SDS011;55104;47.356;19.448;2024-02-14T10:12:24;6.70;;;2.13;;
68273;SDS011;55104;47.356;19.448;2024-02-14T10:15:26;5.07;;;1.88;;
68273;SDS011;55104;47.356;19.448;2024-02-14T10:18:29;6.13;;;2.30;;
68273;SDS011;55104;47.356;19.448;2024-02-14T10:21:34;5.65;;;1.67;;
68273;SDS011;55104;47.356;19.448;2024-02-14T10:24:36;5.72;;;1.70;;
68273;SDS011;55104;47.356;19.448;2024-02-14T10:27:39;10.35;;;2.05;;
68273;SDS011;55104;47.356;19.448;2024-02-14T10:30:44;4.23;;;1.27;;
68273;SDS011;55104;47.356;19.448;2024-02-14T10:33:47;4.97;;;1.40;;
68273;SDS011;55104;47.356;19.448;2024-02-14T10:36:50;5.32;;;1.73;;
68273;SDS011;55104;47.356;19.448;2024-02-14T10:39:55;7.18;;;2.13;;
68273;SDS011;55104;47.356;19.448;2024-02-14T10:42:58;5.50;;;1.70;;
68273;SDS011;55104;47.356;19.448;2024-02-14T10:46:02;4.43;;;1.13;;
68273;SDS011;55104;47.356;19.448;2024-02-14T10:49:09;3.03;;;0.80;;
68273;SDS011;55104;47.356;19.448;2024-02-14T10:52:13;2.03;;;0.85;;
68273;SDS011;55104;47.356;19.448;2024-02-14T10:55:18;3.70;;;1.50;;
68273;SDS011;55104;47.356;19.448;2024-02-14T10:58:22;7.15;;;2.55;;
68273;SDS011;55104;47.356;19.448;2024-02-14T11:01:29;7.95;;;1.83;;
68273;SDS011;55104;47.356;19.448;2024-02-14T11:04:34;6.15;;;1.70;;
68273;SDS011;55104;47.356;19.448;2024-02-14T11:07:36;5.07;;;1.73;;
68273;SDS011;55104;47.356;19.448;2024-02-14T11:10:39;6.35;;;2.20;;
68273;SDS011;55104;47.356;19.448;2024-02-14T11:13:41;8.60;;;1.85;;
68273;SDS011;55104;47.356;19.448;2024-02-14T11:16:45;17.98;;;3.75;;
68273;SDS011;55104;47.356;19.448;2024-02-14T11:19:47;7.25;;;2.65;;
68273;SDS011;55104;47.356;19.448;2024-02-14T11:22:52;4.95;;;1.35;;
68273;SDS011;55104;47.356;19.448;2024-02-14T11:26:00;5.20;;;1.65;;
68273;SDS011;55104;47.356;19.448;2024-02-14T11:29:04;6.03;;;1.20;;
68273;SDS011;55104;47.356;19.448;2024-02-14T11:32:07;4.67;;;1.63;;
68273;SDS011;55104;47.356;19.448;2024-02-14T11:35:12;8.05;;;1.90;;
68273;SDS011;55104;47.356;19.448;2024-02-14T11:38:15;6.15;;;1.83;;
68273;SDS011;55104;47.356;19.448;2024-02-14T11:41:17;4.28;;;1.25;;
68273;SDS011;55104;47.356;19.448;2024-02-14T11:44:20;5.27;;;1.73;;
68273;SDS011;55104;47.356;19.448;2024-02-14T11:47:25;4.32;;;1.60;;
68273;SDS011;55104;47.356;19.448;2024-02-14T11:50:27;4.88;;;1.20;;
68273;SDS011;55104;47.356;19.448;2024-02-14T11:53:30;6.85;;;1.90;;
68273;SDS011;55104;47.356;19.448;2024-02-14T11:56:34;4.63;;;1.40;;
68273;SDS011;55104;47.356;19.448;2024-02-14T11:59:38;5.85;;;1.55;;
68273;SDS011;55104;47.356;19.448;2024-02-14T12:02:42;5.22;;;1.63;;
68273;SDS011;55104;47.356;19.448;2024-02-14T12:05:45;4.93;;;1.58;;
68273;SDS011;55104;47.356;19.448;2024-02-14T12:08:49;4.78;;;1.48;;
68273;SDS011;55104;47.356;19.448;2024-02-14T12:11:52;8.00;;;2.37;;
68273;SDS011;55104;47.356;19.448;2024-02-14T12:14:54;6.28;;;1.77;;
68273;SDS011;55104;47.356;19.448;2024-02-14T12:17:57;4.88;;;1.55;;
68273;SDS011;55104;47.356;19.448;2024-02-14T12:21:03;4.68;;;1.40;;
68273;SDS011;55104;47.356;19.448;2024-02-14T12:24:10;7.13;;;2.20;;
68273;SDS011;55104;47.356;19.448;2024-02-14T12:27:16;3.83;;;1.30;;
68273;SDS011;55104;47.356;19.448;2024-02-14T12:30:19;3.42;;;1.15;;
68273;SDS011;55104;47.356;19.448;2024-02-14T12:33:22;5.03;;;1.38;;
68273;SDS011;55104;47.356;19.448;2024-02-14T12:36:26;4.13;;;1.50;;
68273;SDS011;55104;47.356;19.448;2024-02-14T12:39:29;7.53;;;2.08;;
68273;SDS011;55104;47.356;19.448;2024-02-14T12:42:32;3.90;;;1.40;;
68273;SDS011;55104;47.356;19.448;2024-02-14T12:45:34;3.60;;;1.17;;
68273;SDS011;55104;47.356;19.448;2024-02-14T12:48:36;3.20;;;1.00;;
68273;SDS011;55104;47.356;19.448;2024-02-14T12:51:39;4.95;;;1.38;;
68273;SDS011;55104;47.356;19.448;2024-02-14T12:54:41;4.35;;;1.42;;
68273;SDS011;55104;47.356;19.448;2024-02-14T12:57:49;2.85;;;0.90;;
68273;SDS011;55104;47.356;19.448;2024-02-14T13:00:51;2.78;;;0.90;;
68273;SDS011;55104;47.356;19.448;2024-02-14T13:03:53;2.92;;;0.90;;
68273;SDS011;55104;47.356;19.448;2024-02-14T13:06:56;4.10;;;1.40;;
68273;SDS011;55104;47.356;19.448;2024-02-14T13:09:58;4.67;;;0.93;;
68273;SDS011;55104;47.356;19.448;2024-02-14T13:13:00;3.28;;;0.90;;
68273;SDS011;55104;47.356;19.448;2024-02-14T13:16:03;5.43;;;1.98;;
68273;SDS011;55104;47.356;19.448;2024-02-14T13:19:08;4.82;;;1.05;;
68273;SDS011;55104;47.356;19.448;2024-02-14T13:22:11;3.00;;;0.80;;
68273;SDS011;55104;47.356;19.448;2024-02-14T13:25:13;2.55;;;0.88;;
68273;SDS011;55104;47.356;19.448;2024-02-14T13:28:17;2.72;;;1.08;;
68273;SDS011;55104;47.356;19.448;2024-02-14T13:31:20;3.45;;;0.95;;
68273;SDS011;55104;47.356;19.448;2024-02-14T13:34:23;2.87;;;0.93;;
68273;SDS011;55104;47.356;19.448;2024-02-14T13:37:25;3.00;;;1.00;;
68273;SDS011;55104;47.356;19.448;2024-02-14T13:40:28;3.30;;;0.90;;
68273;SDS011;55104;47.356;19.448;2024-02-14T13:43:30;3.17;;;0.93;;
68273;SDS011;55104;47.356;19.448;2024-02-14T13:46:32;3.40;;;0.93;;
68273;SDS011;55104;47.356;19.448;2024-02-14T13:49:34;3.45;;;0.98;;
68273;SDS011;55104;47.356;19.448;2024-02-14T13:52:37;3.33;;;0.98;;
68273;SDS011;55104;47.356;19.448;2024-02-14T13:55:39;2.22;;;0.60;;
68273;SDS011;55104;47.356;19.448;2024-02-14T13:58:42;2.58;;;0.98;;
68273;SDS011;55104;47.356;19.448;2024-02-14T14:01:46;3.25;;;0.88;;
68273;SDS011;55104;47.356;19.448;2024-02-14T14:04:49;3.13;;;1.02;;
68273;SDS011;55104;47.356;19.448;2024-02-14T14:07:52;3.60;;;1.17;;
68273;SDS011;55104;47.356;19.448;2024-02-14T14:11:00;3.70;;;1.10;;
68273;SDS011;55104;47.356;19.448;2024-02-14T14:14:02;3.70;;;1.33;;
68273;SDS011;55104;47.356;19.448;2024-02-14T14:17:04;2.40;;;0.77;;
68273;SDS011;55104;47.356;19.448;2024-02-14T14:20:07;4.63;;;1.20;;
68273;SDS011;55104;47.356;19.448;2024-02-14T14:23:10;4.43;;;1.27;;
68273;SDS011;55104;47.356;19.448;2024-02-14T14:26:12;4.38;;;1.70;;
68273;SDS011;55104;47.356;19.448;2024-02-14T14:29:15;5.20;;;1.17;;
68273;SDS011;55104;47.356;19.448;2024-02-14T14:32:18;2.58;;;0.77;;
68273;SDS011;55104;47.356;19.448;2024-02-14T14:35:20;2.90;;;0.80;;
68273;SDS011;55104;47.356;19.448;2024-02-14T14:38:23;7.72;;;2.10;;
68273;SDS011;55104;47.356;19.448;2024-02-14T14:41:25;5.35;;;1.63;;
68273;SDS011;55104;47.356;19.448;2024-02-14T14:44:27;5.70;;;1.67;;
68273;SDS011;55104;47.356;19.448;2024-02-14T14:47:31;8.25;;;2.22;;
68273;SDS011;55104;47.356;19.448;2024-02-14T14:50:35;10.38;;;3.85;;
68273;SDS011;55104;47.356;19.448;2024-02-14T14:53:38;14.38;;;4.53;;
68273;SDS011;55104;47.356;19.448;2024-02-14T14:56:41;11.68;;;3.08;;
68273;SDS011;55104;47.356;19.448;2024-02-14T14:59:43;7.17;;;2.50;;
68273;SDS011;55104;47.356;19.448;2024-02-14T15:02:46;7.45;;;2.35;;
68273;SDS011;55104;47.356;19.448;2024-02-14T15:05:49;6.65;;;2.05;;
68273;SDS011;55104;47.356;19.448;2024-02-14T15:08:52;5.60;;;1.85;;
68273;SDS011;55104;47.356;19.448;2024-02-14T15:11:55;7.20;;;2.03;;
68273;SDS011;55104;47.356;19.448;2024-02-14T15:14:59;8.00;;;2.00;;
68273;SDS011;55104;47.356;19.448;2024-02-14T15:18:01;6.32;;;1.73;;
68273;SDS011;55104;47.356;19.448;2024-02-14T15:21:05;3.78;;;1.20;;
68273;SDS011;55104;47.356;19.448;2024-02-14T15:24:14;4.67;;;1.87;;
68273;SDS011;55104;47.356;19.448;2024-02-14T15:27:17;5.68;;;1.35;;
68273;SDS011;55104;47.356;19.448;2024-02-14T15:30:25;7.38;;;2.50;;
68273;SDS011;55104;47.356;19.448;2024-02-14T15:33:47;6.75;;;2.08;;
68273;SDS011;55104;47.356;19.448;2024-02-14T15:36:49;7.70;;;1.67;;
68273;SDS011;55104;47.356;19.448;2024-02-14T15:39:52;5.20;;;1.95;;
68273;SDS011;55104;47.356;19.448;2024-02-14T15:42:54;4.88;;;1.83;;
68273;SDS011;55104;47.356;19.448;2024-02-14T15:45:56;3.97;;;1.10;;
68273;SDS011;55104;47.356;19.448;2024-02-14T15:49:00;6.27;;;1.87;;
68273;SDS011;55104;47.356;19.448;2024-02-14T15:52:03;6.28;;;1.80;;
68273;SDS011;55104;47.356;19.448;2024-02-14T15:55:07;6.57;;;1.83;;
68273;SDS011;55104;47.356;19.448;2024-02-14T15:58:09;8.20;;;2.53;;
68273;SDS011;55104;47.356;19.448;2024-02-14T16:01:12;6.50;;;1.97;;
68273;SDS011;55104;47.356;19.448;2024-02-14T16:04:14;9.98;;;2.42;;
68273;SDS011;55104;47.356;19.448;2024-02-14T16:07:16;7.70;;;2.85;;
68273;SDS011;55104;47.356;19.448;2024-02-14T16:10:18;9.48;;;2.80;;
68273;SDS011;55104;47.356;19.448;2024-02-14T16:13:21;6.77;;;2.20;;
68273;SDS011;55104;47.356;19.448;2024-02-14T16:16:24;5.60;;;2.42;;
68273;SDS011;55104;47.356;19.448;2024-02-14T16:19:26;9.45;;;3.30;;
68273;SDS011;55104;47.356;19.448;2024-02-14T16:22:29;12.00;;;4.05;;
68273;SDS011;55104;47.356;19.448;2024-02-14T16:25:32;16.37;;;4.67;;
68273;SDS011;55104;47.356;19.448;2024-02-14T16:28:39;12.32;;;4.18;;
68273;SDS011;55104;47.356;19.448;2024-02-14T16:31:42;10.27;;;4.78;;
68273;SDS011;55104;47.356;19.448;2024-02-14T16:34:48;12.63;;;4.38;;
68273;SDS011;55104;47.356;19.448;2024-02-14T16:37:51;12.17;;;5.20;;
68273;SDS011;55104;47.356;19.448;2024-02-14T16:40:53;10.45;;;4.85;;
68273;SDS011;55104;47.356;19.448;2024-02-14T16:43:55;22.85;;;5.38;;
68273;SDS011;55104;47.356;19.448;2024-02-14T16:46:58;11.45;;;5.28;;
68273;SDS011;55104;47.356;19.448;2024-02-14T16:50:00;11.30;;;4.70;;
68273;SDS011;55104;47.356;19.448;2024-02-14T16:53:02;13.95;;;6.45;;
68273;SDS011;55104;47.356;19.448;2024-02-14T16:56:05;11.95;;;5.00;;
68273;SDS011;55104;47.356;19.448;2024-02-14T16:59:09;13.53;;;4.80;;
68273;SDS011;55104;47.356;19.448;2024-02-14T17:02:12;20.27;;;5.22;;
68273;SDS011;55104;47.356;19.448;2024-02-14T17:05:17;19.63;;;6.82;;
68273;SDS011;55104;47.356;19.448;2024-02-14T17:08:20;13.05;;;4.60;;
68273;SDS011;55104;47.356;19.448;2024-02-14T17:11:22;16.83;;;5.80;;
68273;SDS011;55104;47.356;19.448;2024-02-14T17:14:25;16.65;;;5.20;;
68273;SDS011;55104;47.356;19.448;2024-02-14T17:17:27;15.98;;;5.18;;
68273;SDS011;55104;47.356;19.448;2024-02-14T17:20:29;13.68;;;5.82;;
68273;SDS011;55104;47.356;19.448;2024-02-14T17:23:32;20.98;;;8.38;;
68273;SDS011;55104;47.356;19.448;2024-02-14T17:26:37;18.73;;;6.03;;
68273;SDS011;55104;47.356;19.448;2024-02-14T17:29:40;21.13;;;8.55;;
68273;SDS011;55104;47.356;19.448;2024-02-14T17:32:42;22.17;;;8.00;;
68273;SDS011;55104;47.356;19.448;2024-02-14T17:35:50;20.35;;;8.73;;
68273;SDS011;55104;47.356;19.448;2024-02-14T17:38:53;20.77;;;7.72;;
68273;SDS011;55104;47.356;19.448;2024-02-14T17:41:57;20.67;;;7.90;;
68273;SDS011;55104;47.356;19.448;2024-02-14T17:44:59;20.17;;;9.03;;
68273;SDS011;55104;47.356;19.448;2024-02-14T17:48:02;18.58;;;7.30;;
68273;SDS011;55104;47.356;19.448;2024-02-14T17:51:05;30.48;;;12.27;;
68273;SDS011;55104;47.356;19.448;2024-02-14T17:54:08;35.88;;;14.30;;
68273;SDS011;55104;47.356;19.448;2024-02-14T17:57:11;45.80;;;14.03;;
68273;SDS011;55104;47.356;19.448;2024-02-14T18:00:13;27.88;;;11.15;;
68273;SDS011;55104;47.356;19.448;2024-02-14T18:03:16;32.20;;;15.18;;